Terminal Aerodrome Forecast
Issued by NWS

Home | Current Version | Previous Version | Text Only | Print | Product List | Glossary On
Versions: 1 2 3 4 5 6 7 8 9 10 11 12 13 14 15 16 17
000
FTUS43 KEAX 201700
TAFSTJ
TAF
KSTJ 201720Z 2018/2118 20014KT P6SM SCT060
     FM210100 19010KT P6SM SCT150
     FM211500 22013G20KT P6SM FEW070=

USA.gov is the U.S. government's official web portal to all federal, state and local government web resources and services.